Bookmark and Share
Track history (hours):
 

Skoleskipet Midoy

Last reported at 2014-Apr-04 15:15 UTC. Time now 2014-Apr-20 18:59 UTC.
Position N 63°27' E 010°25'.
Warning: this ship's position is 16 days out of date.

Length 30 m.

Type: Passenger vessel. MMSI: 257322400.

NotesDate/timePositionNaut miles runAvg speedWind from/ knotsBaromVisibWave heightAir tempDewpointWater temp
2014-Apr-04 15:15N 63°27' E 010°25'0 0.0
2014-Apr-04 14:33N 63°27' E 010°25'0 0.0
2014-Apr-04 13:34N 63°26' E 010°25'0 0.0
2014-Apr-04 12:34N 63°26' E 010°25'0 0.5
2014-Apr-04 11:34N 63°27' E 010°25'0 0.2
2014-Apr-04 10:33N 63°26' E 010°24'0 0.5
2014-Apr-04 09:34N 63°27' E 010°25'0 0.0
2014-Apr-04 08:34N 63°27' E 010°25'0 0.0
2014-Apr-04 07:34N 63°27' E 010°25'0 0.0
2014-Apr-04 06:34N 63°27' E 010°25'0 0.0
2014-Apr-04 05:34N 63°26' E 010°25'0 0.0
2014-Apr-04 04:34N 63°27' E 010°25'0 0.0
2014-Apr-04 03:34N 63°27' E 010°25'0 0.0
2014-Apr-04 02:34N 63°27' E 010°25'0 0.0
2014-Apr-04 01:33N 63°27' E 010°25'0 0.0
2014-Apr-04 00:33N 63°27' E 010°25'0 0.0
2014-Apr-03 23:34N 63°27' E 010°25'0 0.0
2014-Apr-03 22:34N 63°27' E 010°25'0 0.0
2014-Apr-03 21:34N 63°27' E 010°25'0 0.0
2014-Apr-03 20:33N 63°27' E 010°25'0 0.0
2014-Apr-03 19:34N 63°27' E 010°25'0 0.1
2014-Apr-03 18:34N 63°27' E 010°25'5 4.8
2014-Apr-03 17:33N 63°31' E 010°22'3 3.5
2014-Apr-03 16:33N 63°33' E 010°28'6 6.2
2014-Apr-03 15:33N 63°37' E 010°38'1 0.9
2014-Apr-03 14:34N 63°38' E 010°40'1 1.0
2014-Apr-03 13:34N 63°37' E 010°39'0 0.2
2014-Apr-03 12:34N 63°37' E 010°39'7 6.5
2014-Apr-03 11:34N 63°41' E 010°51'0 0.4
2014-Apr-03 10:33N 63°41' E 010°51'7 6.6
2014-Apr-03 09:33N 63°38' E 010°39'7 6.8
2014-Apr-03 08:33N 63°32' E 010°31'5 5.0
2014-Apr-03 07:33N 63°27' E 010°26'1 1.0
2014-Apr-03 06:33N 63°27' E 010°25'0 0.0
2014-Apr-03 05:33N 63°26' E 010°25'0 0.0
2014-Apr-03 04:33N 63°27' E 010°25'0 0.0
2014-Apr-03 03:33N 63°27' E 010°25'0 0.0
2014-Apr-03 02:34N 63°27' E 010°25'0 0.0
2014-Apr-03 01:33N 63°27' E 010°25'0 0.0
2014-Apr-03 00:33N 63°27' E 010°25'0 0.0
2014-Apr-02 23:34N 63°26' E 010°25'0 0.0
2014-Apr-02 22:33N 63°27' E 010°25'0 0.0
2014-Apr-02 21:34N 63°27' E 010°25'0 0.0
2014-Apr-02 20:33N 63°27' E 010°25'0 0.0
2014-Apr-02 19:33N 63°27' E 010°25'0 0.1
2014-Apr-02 18:33N 63°27' E 010°25'7 7.4
2014-Apr-02 17:33N 63°31' E 010°39'4 3.9
2014-Apr-02 16:33N 63°29' E 010°31'6 5.7
2014-Apr-02 15:33N 63°32' E 010°42'2 2.4
2014-Apr-02 14:33N 63°31' E 010°37'0 0.2
2014-Apr-02 13:34N 63°31' E 010°37'0 0.1
2014-Apr-02 12:33N 63°31' E 010°38'1 0.5
2014-Apr-02 11:34N 63°32' E 010°38'0 0.3
2014-Apr-02 10:34N 63°31' E 010°38'0 0.2
2014-Apr-02 09:34N 63°31' E 010°38'1 1.1
2014-Apr-02 08:34N 63°30' E 010°36'4 4.0
2014-Apr-02 07:34N 63°28' E 010°28'2 2.2
2014-Apr-02 06:34N 63°27' E 010°25'0 0.0
2014-Apr-02 05:34N 63°26' E 010°25'0 0.0
2014-Apr-02 04:34N 63°26' E 010°25'0 0.0
2014-Apr-02 03:33N 63°27' E 010°25'0 0.0
2014-Apr-02 02:34N 63°27' E 010°25'0 0.0
2014-Apr-02 01:34N 63°27' E 010°25'0 0.0
2014-Apr-02 00:33N 63°27' E 010°25'0 0.0
2014-Apr-01 23:34N 63°26' E 010°25'0 0.0
2014-Apr-01 22:34N 63°27' E 010°25'0 0.0
2014-Apr-01 21:34N 63°27' E 010°25'0 0.0
2014-Apr-01 20:33N 63°27' E 010°25'0 0.0
2014-Apr-01 19:34N 63°26' E 010°25'0 0.0
2014-Apr-01 18:34N 63°27' E 010°25'2 2.3
2014-Apr-01 17:34N 63°28' E 010°30'3 3.2
2014-Apr-01 16:33N 63°29' E 010°37'2 2.4
2014-Apr-01 15:33N 63°28' E 010°32'0 0.5
2014-Apr-01 14:33N 63°28' E 010°32'1 1.4
2014-Apr-01 13:33N 63°28' E 010°35'1 0.9
2014-Apr-01 12:34N 63°28' E 010°37'0 0.3
2014-Apr-01 11:33N 63°28' E 010°38'2 1.9
2014-Apr-01 10:33N 63°30' E 010°35'5 4.9
2014-Apr-01 09:34N 63°33' E 010°44'4 3.5
2014-Apr-01 08:33N 63°31' E 010°37'5 5.1
2014-Apr-01 07:34N 63°28' E 010°28'2 2.0
2014-Apr-01 06:34N 63°27' E 010°25'0 0.0
2014-Apr-01 05:34N 63°27' E 010°25'0 0.0
2014-Apr-01 04:34N 63°27' E 010°25'0 0.0
2014-Apr-01 03:33N 63°27' E 010°25'0 0.0
2014-Apr-01 02:34N 63°27' E 010°25'0 0.0
2014-Apr-01 01:33N 63°27' E 010°25'0 0.0
2014-Apr-01 00:34N 63°26' E 010°25'0 0.0
2014-Mar-31 23:34N 63°26' E 010°25'0 0.0
2014-Mar-31 22:34N 63°27' E 010°25'0 0.0
2014-Mar-31 21:33N 63°27' E 010°25'0 0.0
2014-Mar-31 20:34N 63°27' E 010°25'0 0.0
2014-Mar-31 19:34N 63°27' E 010°25'1 1.4
2014-Mar-31 18:34N 63°28' E 010°26'2 2.1
2014-Mar-31 17:33N 63°30' E 010°28'4 4.3
2014-Mar-31 16:33N 63°34' E 010°32'5 4.6
2014-Mar-31 15:34N 63°30' E 010°28'3 3.4
2014-Mar-31 14:34N 63°27' E 010°24'0 0.0
2014-Mar-31 13:34N 63°27' E 010°24'0 0.0
2014-Mar-31 12:34N 63°27' E 010°24'0 0.0
2014-Mar-31 11:34N 63°27' E 010°24'0 0.0
2014-Mar-31 10:34N 63°26' E 010°24'0 0.5
2014-Mar-31 09:34N 63°27' E 010°25'0 0.0
2014-Mar-31 08:34N 63°27' E 010°25'0 0.0
2014-Mar-31 07:34N 63°27' E 010°25'0 0.0
2014-Mar-31 06:34N 63°27' E 010°25'0 0.0
2014-Mar-31 05:33N 63°27' E 010°25'0 0.0
2014-Mar-31 04:34N 63°27' E 010°25'0 0.0
2014-Mar-31 03:34N 63°27' E 010°25'0 0.0
2014-Mar-31 02:34N 63°26' E 010°25'0 0.0
2014-Mar-31 01:33N 63°27' E 010°25'0 0.0
2014-Mar-31 00:34N 63°27' E 010°25'0 0.0
2014-Mar-30 23:34N 63°26' E 010°25'0 0.0
2014-Mar-30 22:34N 63°27' E 010°25'0 0.0
2014-Mar-30 21:34N 63°27' E 010°25'0 0.0
2014-Mar-30 20:34N 63°27' E 010°25'0 0.0
2014-Mar-30 19:34N 63°27' E 010°25'0 0.0
2014-Mar-30 18:34N 63°27' E 010°25'0 0.0
2014-Mar-30 17:34N 63°27' E 010°25'0 0.0
2014-Mar-30 16:34N 63°27' E 010°25'  

Dump ship's entire track history

sailing weather and tide predictions

Skoleskipet Midoy — JWYN — position and weather